Time;durP1;ratioP1;P1;durP2;ratioP2;P2;SDS_P1;SDS_P2;PMS_P1;PMS_P2;Temp;Humidity;BMP_temperature;BMP_pressure;BME280_temperature;BME280_humidity;BME280_pressure;Samples;Min_cycle;Max_cycle;Signal;HPM_P1;HPM_P2
2023/04/17 00:01:42;;;;;;;;;12.25;11.50;;;;;6.44;100.00;98555.09;4846323;28;103444;-73
2023/04/17 00:04:09;;;;;;;;;12.00;10.00;;;;;6.32;100.00;98545.75;4850056;28;101927;-72
2023/04/17 00:06:45;;;;;;;;;15.75;14.25;;;;;6.38;100.00;98556.63;4847586;28;101512;-71
2023/04/17 00:09:30;;;;;;;;;11.75;9.75;;;;;6.36;100.00;98552.44;4853431;28;101611;-71
2023/04/17 00:12:25;;;;;;;;;13.00;12.25;;;;;6.30;100.00;98545.94;4840861;28;106812;-71
2023/04/17 00:15:14;;;;;;;;;8.25;8.25;;;;;6.26;100.00;98548.09;4852076;28;101625;-71
2023/04/17 00:17:58;;;;;;;;;14.25;10.00;;;;;6.22;100.00;98544.09;4852857;28;103147;-71
2023/04/17 00:20:43;;;;;;;;;10.75;10.00;;;;;6.18;100.00;98550.84;4854096;28;101868;-71
2023/04/17 00:23:18;;;;;;;;;10.50;10.25;;;;;6.15;100.00;98555.72;4847487;28;107045;-71
2023/04/17 00:25:45;;;;;;;;;9.50;8.25;;;;;6.10;100.00;98541.97;4852949;28;101660;-71
2023/04/17 00:28:12;;;;;;;;;14.00;12.00;;;;;6.03;100.00;98541.84;4855712;28;102147;-70
2023/04/17 00:30:38;;;;;;;;;9.75;9.00;;;;;6.06;100.00;98546.88;4856969;28;101567;-71
2023/04/17 00:33:05;;;;;;;;;12.25;9.00;;;;;6.00;100.00;98542.19;4846544;28;103429;-70
2023/04/17 00:35:32;;;;;;;;;13.50;12.50;;;;;5.96;100.00;98542.72;4852395;28;101877;-71
2023/04/17 00:37:59;;;;;;;;;8.25;7.00;;;;;6.04;100.00;98543.50;4850090;28;102615;-71
2023/04/17 00:40:26;;;;;;;;;11.00;6.75;;;;;6.05;100.00;98547.88;4854544;28;101967;-71
2023/04/17 00:43:02;;;;;;;;;6.25;4.00;;;;;5.99;100.00;98540.50;4848570;28;103386;-71
2023/04/17 00:45:30;;;;;;;;;6.00;5.50;;;;;6.00;100.00;98552.06;4845108;28;101919;-72
2023/04/17 00:47:59;;;;;;;;;4.75;4.00;;;;;5.97;100.00;98547.06;4851078;28;101776;-71
2023/04/17 00:50:27;;;;;;;;;6.00;6.00;;;;;5.97;100.00;98547.06;4854191;28;101763;-71
2023/04/17 00:52:54;;;;;;;;;6.00;6.00;;;;;5.95;100.00;98549.06;4850453;28;103406;-71
2023/04/17 00:55:22;;;;;;;;;7.50;6.00;;;;;5.92;100.00;98534.16;4847156;28;101750;-71
2023/04/17 00:57:49;;;;;;;;;4.00;3.00;;;;;5.91;100.00;98539.69;4849054;28;101705;-71
2023/04/17 01:00:17;;;;;;;;;6.00;4.00;;;;;5.88;100.00;98548.09;4852655;28;101682;-71
2023/04/17 01:02:45;;;;;;;;;5.00;3.75;;;;;5.86;100.00;98548.22;4843588;28;103379;-71
2023/04/17 01:05:13;;;;;;;;;4.50;4.50;;;;;5.82;100.00;98542.38;4849367;28;102546;-71
2023/04/17 01:07:51;;;;;;;;;3.75;3.00;;;;;5.78;100.00;98542.91;4848026;28;102187;-72
2023/04/17 01:10:41;;;;;;;;;1.25;1.25;;;;;5.72;100.00;98538.22;4851056;28;101696;-72
2023/04/17 01:13:24;;;;;;;;;13.00;12.75;;;;;5.65;100.00;98547.97;4850614;28;108502;-72
2023/04/17 01:16:11;;;;;;;;;15.00;14.50;;;;;5.49;100.00;98548.00;4841069;28;101862;-71
2023/04/17 01:18:57;;;;;;;;;17.25;14.25;;;;;5.41;100.00;98546.16;4851947;28;103397;-71
2023/04/17 01:21:42;;;;;;;;;9.00;9.00;;;;;5.37;100.00;98550.19;4850517;28;103624;-72
2023/04/17 01:24:27;;;;;;;;;12.00;8.50;;;;;5.38;100.00;98550.03;4848583;28;106655;-71
2023/04/17 01:26:58;;;;;;;;;20.00;17.75;;;;;5.37;100.00;98551.03;4840878;28;102511;-71
2023/04/17 01:29:25;;;;;;;;;15.00;13.75;;;;;5.38;100.00;98550.03;4850196;28;101957;-72
2023/04/17 01:31:52;;;;;;;;;16.00;14.50;;;;;5.36;100.00;98540.47;4853453;28;101477;-71
2023/04/17 01:34:19;;;;;;;;;15.50;13.50;;;;;5.43;100.00;98548.69;4854704;28;103364;-72
2023/04/17 01:36:46;;;;;;;;;12.50;12.25;;;;;5.43;100.00;98537.97;4841997;28;101926;-71
2023/04/17 01:39:13;;;;;;;;;7.00;6.00;;;;;5.38;100.00;98538.47;4851005;28;101665;-71
2023/04/17 01:41:40;;;;;;;;;3.25;3.00;;;;;5.33;100.00;98540.81;4850422;28;101701;-71
2023/04/17 01:44:07;;;;;;;;;6.00;6.00;;;;;5.27;100.00;98542.31;4853318;28;103618;-71
2023/04/17 01:46:34;;;;;;;;;6.25;6.00;;;;;5.25;100.00;98552.38;4849296;28;101638;-71
2023/04/17 01:49:01;;;;;;;;;8.50;6.75;;;;;5.19;100.00;98547.69;4847258;28;101907;-72
2023/04/17 01:51:30;;;;;;;;;4.50;4.00;;;;;5.08;100.00;98540.00;4854649;28;101603;-72
2023/04/17 01:53:56;;;;;;;;;3.00;3.00;;;;;5.06;100.00;98544.69;4854640;28;103395;-72
2023/04/17 01:56:23;;;;;;;;;3.25;2.25;;;;;5.03;100.00;98542.34;4852546;28;101899;-72
2023/04/17 01:58:50;;;;;;;;;7.50;7.00;;;;;4.97;100.00;98543.00;4848663;28;102383;-72
2023/04/17 02:01:17;;;;;;;;;12.00;9.00;;;;;4.90;100.00;98534.81;4847592;28;102034;-72
2023/04/17 02:03:44;;;;;;;;;7.00;7.00;;;;;4.98;100.00;98538.50;4855066;28;103326;-72
2023/04/17 02:06:12;;;;;;;;;5.50;4.00;;;;;5.02;100.00;98547.88;4850651;28;101806;-72
2023/04/17 02:08:39;;;;;;;;;4.50;4.50;;;;;5.06;100.00;98546.53;4845276;28;102651;-72
2023/04/17 02:11:06;;;;;;;;;4.25;4.25;;;;;5.10;100.00;98553.22;4851518;28;101805;-72
2023/04/17 02:13:32;;;;;;;;;3.25;3.25;;;;;5.10;100.00;98543.34;4850706;28;103404;-71
2023/04/17 02:15:59;;;;;;;;;8.75;6.00;;;;;5.15;100.00;98550.88;4847173;28;102746;-72
2023/04/17 02:18:27;;;;;;;;;2.00;2.00;;;;;5.14;100.00;98558.06;4846724;28;101525;-72
2023/04/17 02:20:54;;;;;;;;;6.50;3.25;;;;;5.14;100.00;98554.56;4847192;28;101656;-72
2023/04/17 02:23:21;;;;;;;;;8.75;8.50;;;;;4.96;100.00;98560.09;4849832;28;103349;-72
2023/04/17 02:25:47;;;;;;;;;14.25;13.00;;;;;4.87;100.00;98553.88;4850520;28;101934;-72
2023/04/17 02:28:14;;;;;;;;;12.00;9.00;;;;;4.92;100.00;98556.06;4847907;28;101594;-72
2023/04/17 02:30:41;;;;;;;;;8.25;7.75;;;;;5.00;100.00;98549.91;4853445;28;101743;-72
2023/04/17 02:33:08;;;;;;;;;6.75;5.75;;;;;5.06;100.00;98547.38;4850524;28;103491;-71
2023/04/17 02:35:35;;;;;;;;;7.00;4.50;;;;;5.11;100.00;98547.69;4866039;28;102609;-72
2023/04/17 02:38:02;;;;;;;;;4.00;3.25;;;;;5.10;100.00;98546.03;4851849;28;101808;-72
2023/04/17 02:40:29;;;;;;;;;5.50;4.00;;;;;5.13;100.00;98543.03;4848211;28;101630;-72
2023/04/17 02:42:56;;;;;;;;;3.50;3.50;;;;;5.17;100.00;98556.91;4846961;28;103506;-72
2023/04/17 02:45:23;;;;;;;;;2.50;2.00;;;;;5.11;100.00;98545.03;4850636;28;102664;-72
2023/04/17 02:47:50;;;;;;;;;6.00;4.50;;;;;5.12;100.00;98545.88;4849519;28;101674;-72
2023/04/17 02:50:17;;;;;;;;;17.75;15.00;;;;;5.12;100.00;98551.22;4849139;28;101647;-72
2023/04/17 02:52:44;;;;;;;;;15.50;12.00;;;;;5.11;100.00;98553.06;4855660;28;103707;-72
2023/04/17 02:55:11;;;;;;;;;19.25;12.25;;;;;5.07;100.00;98548.19;4850849;28;102053;-72
2023/04/17 02:57:38;;;;;;;;;18.00;17.50;;;;;4.98;100.00;98543.84;4851041;28;102255;-71
2023/04/17 03:00:12;;;;;;;;;17.50;16.25;;;;;5.00;100.00;98561.41;4845958;28;101805;-72
2023/04/17 03:02:40;;;;;;;;;13.00;11.50;;;;;4.97;100.00;98559.09;4847020;28;106936;-72
2023/04/17 03:05:08;;;;;;;;;11.00;11.00;;;;;4.96;100.00;98560.09;4851960;28;101836;-72
2023/04/17 03:07:35;;;;;;;;;12.75;10.75;;;;;4.62;100.00;98508.50;4851937;28;101703;-72
2023/04/17 03:10:02;;;;;;;;;11.75;8.00;;;;;4.92;100.00;98556.06;4847023;28;101691;-72
2023/04/17 03:12:29;;;;;;;;;8.00;6.50;;;;;4.57;100.00;98503.66;4851986;28;103473;-72
2023/04/17 03:14:56;;;;;;;;;21.25;16.50;;;;;4.91;100.00;98559.75;4850424;28;101949;-72
2023/04/17 03:17:23;;;;;;;;;26.25;21.75;;;;;4.82;100.00;98568.78;4850123;28;101999;-72
2023/04/17 03:19:50;;;;;;;;;15.75;14.75;;;;;4.86;100.00;98562.09;4852020;28;101848;-72
2023/04/17 03:22:17;;;;;;;;;16.75;14.00;;;;;4.84;100.00;98569.47;4845095;28;103126;-72
2023/04/17 03:24:44;;;;;;;;;8.00;7.00;;;;;4.80;100.00;98560.06;4851134;28;101819;-72
2023/04/17 03:27:11;;;;;;;;;20.75;15.75;;;;;4.58;100.00;98568.75;4851597;28;101877;-72
2023/04/17 03:29:38;;;;;;;;;16.00;16.00;;;;;4.43;100.00;98572.06;4847569;28;101735;-72
2023/04/17 03:32:05;;;;;;;;;16.75;13.00;;;;;4.38;100.00;98573.53;4847336;28;103053;-72
2023/04/17 03:34:33;;;;;;;;;27.75;20.00;;;;;4.27;100.00;98561.31;4850981;28;101848;-72
2023/04/17 03:36:59;;;;;;;;;21.25;14.75;;;;;4.33;100.00;98578.53;4853727;28;106491;-72
2023/04/17 03:39:26;;;;;;;;;17.00;16.00;;;;;4.33;100.00;98582.06;4847868;28;101749;-72
2023/04/17 03:41:53;;;;;;;;;18.00;16.50;;;;;4.34;100.00;98586.41;4841403;28;103518;-72
2023/04/17 03:44:20;;;;;;;;;29.25;25.50;;;;;4.32;100.00;98596.44;4851162;28;101680;-72
2023/04/17 03:46:47;;;;;;;;;27.25;22.50;;;;;4.02;100.00;98544.31;4848188;28;102444;-71
2023/04/17 03:49:14;;;;;;;;;20.25;16.25;;;;;4.48;100.00;98598.34;4852238;28;101857;-72
2023/04/17 03:51:41;;;;;;;;;25.00;18.25;;;;;4.55;100.00;98585.16;4849874;28;110178;-72
2023/04/17 03:54:08;;;;;;;;;16.50;12.75;;;;;4.64;100.00;98592.19;4851379;28;101588;-72
2023/04/17 03:56:36;;;;;;;;;13.25;11.00;;;;;4.69;100.00;98592.53;4853288;28;102030;-72
2023/04/17 03:59:03;;;;;;;;;17.75;12.75;;;;;4.75;100.00;98602.59;4858119;28;101617;-72
2023/04/17 04:01:31;;;;;;;;;30.75;23.75;;;;;4.71;100.00;98590.53;4850668;28;103536;-72
2023/04/17 04:03:58;;;;;;;;;22.00;17.75;;;;;4.89;100.00;98613.50;4852825;28;101865;-72
2023/04/17 04:06:28;;;;;;;;;24.75;20.75;;;;;4.91;100.00;98608.81;4854639;28;101569;-72
2023/04/17 04:08:56;;;;;;;;;16.50;13.25;;;;;5.03;100.00;98614.69;4855500;28;101626;-73
2023/04/17 04:11:23;;;;;;;;;10.50;8.00;;;;;5.12;100.00;98621.75;4855183;28;103354;-72
2023/04/17 04:13:49;;;;;;;;;11.25;11.25;;;;;5.22;100.00;98619.72;4849938;28;101659;-72
2023/04/17 04:16:16;;;;;;;;;11.75;9.25;;;;;5.30;100.00;98619.75;4851306;28;101787;-72
2023/04/17 04:18:44;;;;;;;;;11.75;9.75;;;;;5.36;100.00;98618.22;4858904;28;102403;-71
2023/04/17 04:21:11;;;;;;;;;7.00;6.00;;;;;5.42;100.00;98622.06;4855296;28;109768;-71
2023/04/17 04:23:40;;;;;;;;;11.25;8.00;;;;;5.46;100.00;98626.94;4849625;28;101764;-71
2023/04/17 04:26:07;;;;;;;;;21.25;17.50;;;;;5.50;100.00;98616.69;4855776;28;101895;-71
2023/04/17 04:28:34;;;;;;;;;14.00;10.75;;;;;5.60;100.00;98622.72;4854677;28;101915;-71
2023/04/17 04:31:01;;;;;;;;;13.25;12.50;;;;;5.65;100.00;98612.34;4853850;28;103528;-72
2023/04/17 04:33:28;;;;;;;;;39.25;34.00;;;;;5.70;100.00;98621.56;4852290;28;101858;-71
2023/04/17 04:35:59;;;;;;;;;34.00;27.50;;;;;5.81;100.00;98623.03;4849700;28;101996;-71
2023/04/17 04:38:31;;;;;;;;;31.00;27.00;;;;;5.83;100.00;98621.03;4852182;28;102382;-71
2023/04/17 04:41:04;;;;;;;;;33.75;25.00;;;;;5.90;100.00;98615.88;4854593;28;103554;-72
2023/04/17 04:43:32;;;;;;;;;18.00;17.00;;;;;6.06;100.00;98618.50;4844159;28;101904;-71
2023/04/17 04:45:59;;;;;;;;;24.00;19.00;;;;;6.12;100.00;98613.25;4846463;28;101726;-72
2023/04/17 04:48:27;;;;;;;;;21.75;17.75;;;;;6.28;100.00;98620.44;4851267;28;101640;-72
2023/04/17 04:50:55;;;;;;;;;15.00;9.50;;;;;6.40;100.00;98612.81;4852307;28;103332;-72
2023/04/17 04:53:22;;;;;;;;;12.00;10.00;;;;;6.52;100.00;98616.81;4854119;28;101602;-72
2023/04/17 04:55:48;;;;;;;;;12.50;10.25;;;;;6.63;100.00;98616.41;4849663;28;101499;-72
2023/04/17 04:58:15;;;;;;;;;5.50;4.00;;;;;6.69;100.00;98610.34;4852073;28;101980;-72
2023/04/17 05:00:43;;;;;;;;;15.50;13.25;;;;;6.83;100.00;98616.81;4855530;28;103407;-72
2023/04/17 05:03:10;;;;;;;;;11.25;8.00;;;;;6.88;100.00;98604.53;4846817;28;102029;-72
2023/04/17 05:05:38;;;;;;;;;11.25;9.75;;;;;7.10;100.00;98610.94;4847101;28;101503;-72
2023/04/17 05:08:05;;;;;;;;;13.50;12.50;;;;;7.15;100.00;98625.53;4854004;28;101675;-72
2023/04/17 05:10:32;;;;;;;;;18.00;13.00;;;;;7.24;100.00;98628.16;4850927;28;103354;-72
2023/04/17 05:13:00;;;;;;;;;19.50;17.25;;;;;7.35;100.00;98620.47;4854729;28;101904;-72
2023/04/17 05:15:27;;;;;;;;;29.50;24.50;;;;;7.39;100.00;98629.03;4845561;28;101982;-71
2023/04/17 05:17:53;;;;;;;;;20.25;18.25;;;;;7.46;100.00;98627.31;4849413;28;102988;-71
2023/04/17 05:20:20;;;;;;;;;27.50;25.00;;;;;7.45;100.00;98620.25;4850671;28;103548;-70
2023/04/17 05:22:48;;;;;;;;;26.75;24.25;;;;;7.52;100.00;98629.28;4852081;28;102029;-72
2023/04/17 05:25:15;;;;;;;;;26.25;22.25;;;;;7.54;100.00;98624.53;4849129;28;101915;-73
2023/04/17 05:27:42;;;;;;;;;21.75;20.75;;;;;7.58;100.00;98631.22;4853917;28;101551;-71
2023/04/17 05:30:09;;;;;;;;;24.00;20.00;;;;;7.54;100.00;98624.53;4850764;28;103384;-71
2023/04/17 05:32:36;;;;;;;;;35.25;27.25;;;;;7.47;100.00;98629.81;4851705;28;101757;-71
2023/04/17 05:35:04;;;;;;;;;36.25;32.50;;;;;7.05;100.00;98573.84;4855240;28;101700;-71
2023/04/17 05:37:31;;;;;;;;;39.25;33.75;;;;;7.34;100.00;98626.06;4848443;28;101468;-71
2023/04/17 05:40:00;;;;;;;;;27.75;23.00;;;;;7.46;100.00;98641.59;4851095;28;103333;-71
2023/04/17 05:42:27;;;;;;;;;25.50;20.75;;;;;7.60;100.00;98631.91;4851629;28;101624;-72
2023/04/17 05:44:54;;;;;;;;;21.25;16.25;;;;;7.72;100.00;98637.66;4852793;28;101535;-72
2023/04/17 05:47:20;;;;;;;;;32.25;27.25;;;;;7.71;100.00;98638.69;4844345;28;102049;-71
2023/04/17 05:49:50;;;;;;;;;29.75;26.75;;;;;7.75;100.00;98639.97;4850079;28;103465;-71
2023/04/17 05:52:17;;;;;;;;;38.25;35.25;;;;;7.74;100.00;98628.41;4852733;28;102278;-71
2023/04/17 05:54:44;;;;;;;;;45.25;34.75;;;;;7.78;100.00;98637.78;4855440;28;101983;-71
2023/04/17 05:57:11;;;;;;;;;32.25;27.75;;;;;7.92;100.00;98634.28;4846693;28;101910;-71
2023/04/17 05:59:38;;;;;;;;;27.50;26.50;;;;;8.23;100.00;98626.06;4845765;28;103400;-71
2023/04/17 06:02:06;;;;;;;;;38.50;31.00;;;;;8.33;100.00;98628.50;4850043;28;106118;-72
2023/04/17 06:04:34;;;;;;;;;42.00;36.50;;;;;8.36;100.00;98623.56;4852787;28;101914;-72
2023/04/17 06:07:01;;;;;;;;;40.25;34.25;;;;;8.48;100.00;98626.63;4871941;28;101613;-72
2023/04/17 06:09:29;;;;;;;;;36.00;29.75;;;;;8.66;100.00;98621.66;4849029;28;103120;-72
2023/04/17 06:11:56;;;;;;;;;38.00;30.25;;;;;8.66;100.00;98618.97;4848558;28;102172;-72
2023/04/17 06:14:23;;;;;;;;;28.25;26.75;;;;;8.77;100.00;98623.91;4853464;28;101920;-72
2023/04/17 06:16:50;;;;;;;;;33.25;27.00;;;;;8.87;99.68;98632.50;4852453;28;102038;-72
2023/04/17 06:19:17;;;;;;;;;28.75;26.00;;;;;9.01;99.06;98633.47;4849512;28;103238;-72
2023/04/17 06:21:44;;;;;;;;;25.50;23.25;;;;;9.20;97.56;98634.72;4852071;28;101920;-71
2023/04/17 06:24:11;;;;;;;;;18.75;16.25;;;;;9.55;95.87;98646.50;4851617;28;101641;-72
2023/04/17 06:26:38;;;;;;;;;25.25;23.25;;;;;10.03;92.87;98645.69;4851363;28;101723;-69
2023/04/17 06:29:04;;;;;;;;;28.00;24.00;;;;;10.37;90.30;98636.78;4844720;28;103365;-71
2023/04/17 06:31:31;;;;;;;;;29.50;27.25;;;;;10.36;91.24;98650.53;4851333;28;101480;-71
2023/04/17 06:33:59;;;;;;;;;38.00;24.75;;;;;10.35;91.45;98644.28;4849074;28;101498;-71
2023/04/17 06:36:26;;;;;;;;;29.75;25.00;;;;;10.54;93.52;98646.25;4852070;28;101728;-71
2023/04/17 06:38:53;;;;;;;;;28.00;21.25;;;;;10.25;91.44;98576.22;4851598;28;103588;-72
2023/04/17 06:41:20;;;;;;;;;32.75;27.75;;;;;10.57;92.87;98640.44;4844856;28;101852;-71
2023/04/17 06:43:47;;;;;;;;;26.25;24.50;;;;;10.77;91.72;98655.91;4849987;28;101817;-72
2023/04/17 06:46:14;;;;;;;;;23.75;20.50;;;;;11.01;92.05;98656.25;4855355;28;101821;-72
2023/04/17 06:48:41;;;;;;;;;24.25;19.50;;;;;10.54;91.47;98600.28;4851873;28;108174;-71
2023/04/17 06:51:08;;;;;;;;;35.50;27.50;;;;;11.07;91.47;98660.03;4844987;28;101844;-71
2023/04/17 06:53:35;;;;;;;;;28.50;21.00;;;;;11.22;89.78;98663.38;4851051;28;102251;-72
2023/04/17 06:56:02;;;;;;;;;26.75;20.00;;;;;11.39;90.31;98661.16;4851665;28;102047;-71
2023/04/17 06:58:29;;;;;;;;;17.00;14.25;;;;;11.63;88.59;98671.41;4852317;28;103351;-71
2023/04/17 07:00:56;;;;;;;;;19.00;15.00;;;;;11.78;87.47;98660.41;4844704;28;101975;-71
2023/04/17 07:03:23;;;;;;;;;23.75;22.50;;;;;11.69;86.27;98607.44;4847837;28;101984;-72
2023/04/17 07:05:50;;;;;;;;;22.25;19.50;;;;;12.04;85.67;98660.41;4853123;28;101673;-71
2023/04/17 07:08:21;;;;;;;;;30.75;25.75;;;;;11.86;85.57;98669.16;4852822;28;103408;-72
2023/04/17 07:10:48;;;;;;;;;34.75;29.25;;;;;11.75;86.08;98674.38;4850357;28;101913;-72
2023/04/17 07:13:15;;;;;;;;;31.00;26.00;;;;;11.59;87.93;98668.28;4847371;28;101577;-72
2023/04/17 07:15:42;;;;;;;;;27.75;23.25;;;;;11.82;87.98;98667.06;4850301;28;101543;-72
2023/04/17 07:18:09;;;;;;;;;36.00;29.50;;;;;11.80;87.25;98674.56;4851023;28;103565;-72
2023/04/17 07:20:36;;;;;;;;;31.50;26.25;;;;;11.84;87.14;98671.22;4852665;28;101926;-72
2023/04/17 07:23:03;;;;;;;;;33.00;28.50;;;;;11.88;87.98;98666.25;4847685;28;102304;-72
2023/04/17 07:25:30;;;;;;;;;30.75;28.00;;;;;11.87;87.43;98672.72;4851187;28;101628;-72
2023/04/17 07:27:57;;;;;;;;;36.00;30.00;;;;;11.68;88.12;98676.19;4849130;28;103370;-72
2023/04/17 07:30:24;;;;;;;;;23.75;23.00;;;;;11.96;86.77;98664.19;4849587;28;101552;-72
2023/04/17 07:32:51;;;;;;;;;19.75;18.25;;;;;12.35;86.58;98660.59;4841358;28;101586;-71
2023/04/17 07:35:18;;;;;;;;;24.50;22.50;;;;;12.28;85.19;98667.91;4842298;28;101617;-72
2023/04/17 07:37:45;;;;;;;;;33.00;29.00;;;;;12.09;85.11;98674.19;4851222;28;103460;-72
2023/04/17 07:40:13;;;;;;;;;33.00;29.00;;;;;11.82;86.57;98667.06;4850977;28;101509;-72
2023/04/17 07:42:40;;;;;;;;;30.50;27.50;;;;;11.87;88.17;98675.41;4849483;28;101608;-72
2023/04/17 07:45:08;;;;;;;;;33.75;30.00;;;;;11.77;88.21;98675.81;4844541;28;101776;-72
2023/04/17 07:47:36;;;;;;;;;27.50;25.50;;;;;11.93;87.17;98683.53;4849380;28;103372;-72
2023/04/17 07:50:03;;;;;;;;;22.00;21.00;;;;;12.33;86.04;98678.13;4850566;28;102018;-72
2023/04/17 07:52:30;;;;;;;;;18.75;18.00;;;;;12.62;86.11;98679.53;4848592;28;101804;-71
2023/04/17 07:54:57;;;;;;;;;24.25;19.50;;;;;12.71;85.56;98678.25;4849266;28;102002;-72
2023/04/17 07:57:25;;;;;;;;;36.25;32.75;;;;;12.44;84.62;98681.03;4849385;28;103620;-71
2023/04/17 07:59:52;;;;;;;;;48.50;38.75;;;;;12.02;86.15;98670.66;4847921;28;101818;-72
2023/04/17 08:02:19;;;;;;;;;44.25;36.25;;;;;11.95;86.47;98694.19;4837148;28;102282;-71
2023/04/17 08:04:48;;;;;;;;;40.25;35.00;;;;;11.98;87.21;98688.34;4854582;28;101829;-71
2023/04/17 08:07:17;;;;;;;;;39.25;33.00;;;;;12.29;86.61;98680.41;4848830;28;103457;-71
2023/04/17 08:09:44;;;;;;;;;43.75;35.75;;;;;12.37;87.38;98682.94;4850518;28;102743;-71
2023/04/17 08:12:11;;;;;;;;;48.50;38.25;;;;;12.58;86.90;98681.00;4851095;28;101596;-71
2023/04/17 08:14:39;;;;;;;;;34.25;31.75;;;;;12.74;84.29;98661.56;4849517;28;102313;-71
2023/04/17 08:17:06;;;;;;;;;44.00;36.25;;;;;12.72;85.31;98674.50;4847096;28;103384;-71
2023/04/17 08:19:33;;;;;;;;;40.50;34.75;;;;;13.07;83.50;98683.97;4852300;28;101549;-71
2023/04/17 08:22:03;;;;;;;;;42.00;34.75;;;;;13.01;82.18;98638.72;4851526;28;101522;-71
2023/04/17 08:24:30;;;;;;;;;39.50;35.00;;;;;13.36;84.49;98678.03;4852364;28;102359;-71
2023/04/17 08:26:57;;;;;;;;;35.50;30.50;;;;;13.70;80.40;98679.50;4844911;28;103320;-71
2023/04/17 08:29:25;;;;;;;;;29.00;27.00;;;;;14.09;80.31;98678.41;4846847;28;101936;-71
2023/04/17 08:31:52;;;;;;;;;33.75;30.25;;;;;14.09;78.05;98663.97;4849798;28;102044;-71
2023/04/17 08:34:39;;;;;;;;;30.00;25.00;;;;;14.02;78.87;98677.59;4847729;28;101912;-72
2023/04/17 08:37:06;;;;;;;;;29.25;26.25;;;;;13.72;79.04;98682.84;4850206;28;103538;-71
2023/04/17 08:39:33;;;;;;;;;43.25;35.00;;;;;13.10;81.68;98678.13;4850942;28;101788;-72
2023/04/17 08:42:05;;;;;;;;;38.00;34.00;;;;;13.27;82.47;98670.34;4853604;28;101589;-71
2023/04/17 08:44:32;;;;;;;;;36.25;32.00;;;;;13.31;81.99;98674.31;4870198;28;101812;-71
2023/04/17 08:46:59;;;;;;;;;34.75;31.00;;;;;13.04;82.00;98670.84;4845319;28;103372;-71
2023/04/17 08:49:33;;;;;;;;;35.00;31.25;;;;;12.95;84.78;98672.13;4851382;28;101592;-71
2023/04/17 08:52:03;;;;;;;;;35.50;32.00;;;;;13.01;84.33;98662.31;4849766;28;101937;-71
2023/04/17 08:54:33;;;;;;;;;41.50;33.25;;;;;12.67;84.30;98671.59;4856918;28;101971;-72
2023/04/17 08:57:02;;;;;;;;;42.00;35.00;;;;;12.42;84.22;98664.16;4843701;28;103336;-72
2023/04/17 08:59:31;;;;;;;;;36.75;33.25;;;;;12.51;84.12;98654.75;4849447;28;101578;-72
2023/04/17 09:02:05;;;;;;;;;25.00;22.25;;;;;12.99;81.76;98676.09;4852593;28;101582;-72
2023/04/17 09:04:35;;;;;;;;;18.00;17.00;;;;;13.46;81.41;98674.88;4856634;28;101745;-72
2023/04/17 09:07:04;;;;;;;;;15.00;14.00;;;;;13.75;78.16;98673.41;4849395;28;103523;-72
2023/04/17 09:09:51;;;;;;;;;14.00;13.25;;;;;13.94;77.79;98682.47;4847881;28;102053;-72
2023/04/17 09:12:20;;;;;;;;;15.50;15.00;;;;;14.17;77.76;98667.25;4845048;28;102348;-72
2023/04/17 09:14:47;;;;;;;;;20.25;16.75;;;;;14.29;75.10;98668.16;4857631;28;106764;-72
2023/04/17 09:17:18;;;;;;;;;16.75;14.50;;;;;14.69;72.53;98662.34;4848223;28;107908;-73
2023/04/17 09:20:10;;;;;;;;;15.75;15.75;;;;;14.72;71.90;98667.38;4851062;28;102093;-70
2023/04/17 09:22:41;;;;;;;;;17.00;14.00;;;;;14.66;71.59;98668.25;4849166;28;101856;-70
2023/04/17 09:25:15;;;;;;;;;15.50;14.25;;;;;14.60;73.28;98674.59;4855265;28;101546;-71
2023/04/17 09:27:43;;;;;;;;;16.75;14.25;;;;;14.69;71.16;98673.25;4852282;28;107767;-71
2023/04/17 09:30:10;;;;;;;;;14.75;12.00;;;;;14.60;71.10;98663.72;4848311;28;101803;-71
2023/04/17 09:32:38;;;;;;;;;11.00;10.00;;;;;14.54;71.16;98678.22;4850516;28;101803;-71
2023/04/17 09:35:06;;;;;;;;;17.00;16.00;;;;;14.30;74.27;98669.00;4853689;28;101563;-71
2023/04/17 09:37:53;;;;;;;;;17.00;13.00;;;;;14.33;73.35;98668.53;4855661;28;103382;-71
2023/04/17 09:40:24;;;;;;;;;14.25;11.00;;;;;14.23;74.77;98668.22;4845653;28;101890;-71
2023/04/17 09:42:54;;;;;;;;;13.50;11.00;;;;;14.59;74.29;98668.31;4851134;28;102714;-70
2023/04/17 09:45:23;;;;;;;;;10.25;9.00;;;;;14.73;72.57;98653.50;4852139;28;101951;-71
2023/04/17 09:47:54;;;;;;;;;15.50;13.25;;;;;14.79;71.04;98662.66;4854354;28;103373;-71
2023/04/17 09:50:25;;;;;;;;;12.00;11.25;;;;;15.05;71.08;98656.06;4849967;28;102091;-71
2023/04/17 09:52:55;;;;;;;;;13.00;13.00;;;;;14.80;71.79;98666.22;4850788;28;101544;-71
2023/04/17 09:55:23;;;;;;;;;13.50;13.00;;;;;14.93;70.32;98664.19;4854251;28;102051;-71
2023/04/17 09:57:55;;;;;;;;;9.25;8.75;;;;;14.99;71.53;98663.28;4851229;28;103350;-72
2023/04/17 10:00:28;;;;;;;;;10.50;10.00;;;;;15.07;70.57;98657.53;4846295;28;101917;-72
2023/04/17 10:02:57;;;;;;;;;11.00;10.25;;;;;14.69;72.08;98670.53;4851618;28;101918;-72
2023/04/17 10:05:28;;;;;;;;;11.00;10.00;;;;;14.85;70.18;98661.78;4854004;28;101970;-71
2023/04/17 10:07:55;;;;;;;;;9.50;8.50;;;;;14.94;71.42;98657.69;4854478;28;103347;-72
2023/04/17 10:10:32;;;;;;;;;10.75;9.50;;;;;14.85;70.68;98661.78;4847041;28;101584;-71
2023/04/17 10:13:02;;;;;;;;;15.75;12.50;;;;;14.30;71.34;98615.44;4849259;28;101511;-71
2023/04/17 10:15:29;;;;;;;;;10.00;8.75;;;;;14.63;73.24;98657.84;4853224;28;101768;-71
2023/04/17 10:18:22;;;;;;;;;12.00;11.25;;;;;14.53;72.05;98665.69;4853361;28;103383;-71
2023/04/17 10:20:52;;;;;;;;;6.50;6.50;;;;;14.42;73.13;98663.69;4846775;28;101813;-71
2023/04/17 10:23:33;;;;;;;;;13.00;10.25;;;;;14.37;74.42;98663.50;4849124;28;101505;-72
2023/04/17 10:26:19;;;;;;;;;18.50;13.75;;;;;13.95;73.58;98668.69;4853237;28;101681;-71
2023/04/17 10:28:48;;;;;;;;;15.50;14.75;;;;;13.70;75.40;98667.78;4852119;28;107942;-72
2023/04/17 10:31:15;;;;;;;;;16.75;15.00;;;;;13.71;75.35;98664.03;4849684;28;101568;-71
2023/04/17 10:33:49;;;;;;;;;14.25;13.00;;;;;13.61;75.64;98675.38;4847743;28;102156;-72
2023/04/17 10:36:38;;;;;;;;;15.25;14.25;;;;;13.92;76.24;98666.38;4849026;28;102122;-72
2023/04/17 10:39:12;;;;;;;;;16.00;15.25;;;;;14.02;75.49;98665.88;4850646;28;107930;-71
2023/04/17 10:42:03;;;;;;;;;16.75;16.00;;;;;14.16;76.03;98668.28;4846411;28;101544;-71
2023/04/17 10:44:34;;;;;;;;;16.00;15.50;;;;;14.34;74.63;98670.22;4846904;28;101868;-71
2023/04/17 10:47:14;;;;;;;;;13.00;13.00;;;;;14.46;75.88;98662.16;4852135;28;102074;-71
2023/04/17 10:49:59;;;;;;;;;17.75;16.00;;;;;14.53;75.58;98665.69;4850653;28;103563;-70
2023/04/17 10:52:33;;;;;;;;;16.25;16.00;;;;;14.60;73.30;98663.72;4843741;28;101897;-71
2023/04/17 10:55:19;;;;;;;;;21.25;18.25;;;;;14.53;73.76;98674.69;4847932;28;101470;-72
2023/04/17 10:58:12;;;;;;;;;16.75;15.75;;;;;14.51;73.32;98656.88;4853640;28;102508;-71
2023/04/17 11:00:50;;;;;;;;;18.00;18.00;;;;;14.27;73.67;98667.53;4848901;28;107894;-71
2023/04/17 11:03:17;;;;;;;;;21.50;20.00;;;;;13.70;74.46;98673.22;4843716;28;102546;-71
2023/04/17 11:05:45;;;;;;;;;21.50;19.25;;;;;13.33;77.31;98675.75;4851252;28;103030;-71
2023/04/17 11:08:13;;;;;;;;;23.50;19.00;;;;;13.05;78.11;98671.69;4852284;28;102115;-71
2023/04/17 11:10:40;;;;;;;;;20.00;18.50;;;;;12.97;78.77;98680.88;4845234;28;103856;-71
2023/04/17 11:13:07;;;;;;;;;22.00;20.75;;;;;12.80;79.87;98676.97;4848428;28;102183;-71
2023/04/17 11:15:34;;;;;;;;;17.75;17.00;;;;;12.81;81.33;98682.19;4846045;28;102522;-71
2023/04/17 11:18:02;;;;;;;;;19.00;18.00;;;;;12.81;80.75;98678.66;4851457;28;101737;-72
2023/04/17 11:20:32;;;;;;;;;18.25;17.75;;;;;12.71;82.06;98689.94;4852019;28;103611;-72
2023/04/17 11:23:03;;;;;;;;;21.50;20.75;;;;;12.52;83.13;98686.22;4849804;28;102239;-70